»·PEaware :: AAL360 KGEG-KGEG

AAL360 :: KGEG-KGEG

FLIGHT INFORMATION

Flight Status: Arrived
Operator:
American Airlines
More flights by this operator :: More flights under this callsign
Pilot: Sergei F. (8485)
Aircraft: BOEING 737-300
(B733)
More flights by this aircraft type
Origin: KGEG Spokane Intl
United States
Destination: KGEG Spokane Intl
United States
More flights between these airports :: More routes between these airports
Route: GEG
File this flight plan on PilotEdge
Remarks:
Altitude:
(Current/Filed)
6,000ft
Speed:
(Current/Filed)
200kts
Departed: 10-Nov-17 09:42 PM
Arrived: 10-Nov-17 10:15 PM
Distance/Time
Traveled:
0nm/0:33
Distance/Time
To Go:
Arrived

Flight Plot

Page will automatically refresh every two minutes.


Map Options




Map Legend


Flown Route
Filed Route
Departure Airport
Arrival Airport
Navaid (VOR, NDB)
Fix

Horizontal Profiles

Position Reports

Time Latitude Longitude Heading Altitude Ground
Speed
10-Nov-17 21:25 47.623989 -117.535875 1 2361ft 0kts
10-Nov-17 21:26 47.623989 -117.535875 1 2361ft 0kts
10-Nov-17 21:27 47.623989 -117.535875 1 2361ft 0kts
10-Nov-17 21:28 47.623989 -117.535875 1 2361ft 0kts
10-Nov-17 21:29 47.623989 -117.535875 1 2361ft 0kts
10-Nov-17 21:30 47.623989 -117.535875 1 2361ft 0kts
10-Nov-17 21:31 47.623989 -117.535875 1 2361ft 0kts
10-Nov-17 21:32 47.623883 -117.535880 1 2361ft 0kts
10-Nov-17 21:33 47.623342 -117.535908 1 2361ft 0kts
10-Nov-17 21:34 47.623260 -117.535824 57 2361ft 0kts
10-Nov-17 21:35 47.623211 -117.535616 133 2361ft 0kts
10-Nov-17 21:36 47.623211 -117.535616 133 2361ft 0kts
10-Nov-17 21:37 47.623211 -117.535616 133 2361ft 0kts
10-Nov-17 21:38 47.623211 -117.535616 133 2361ft 0kts
10-Nov-17 21:39 47.623589 -117.533767 44 2359ft 11kts
10-Nov-17 21:40 47.625488 -117.530916 44 2355ft 12kts
10-Nov-17 21:41 47.627943 -117.527233 45 2350ft 13kts
10-Nov-17 21:42 47.630893 -117.522787 44 2337ft 16kts
10-Nov-17 21:43 47.632275 -117.520592 71 2330ft 0kts
10-Nov-17 21:44 47.632275 -117.520592 71 2330ft 0kts
10-Nov-17 21:45 47.631817 -117.519349 135 2327ft 12kts
10-Nov-17 21:46 47.630975 -117.518642 218 2327ft 0kts
10-Nov-17 21:47 47.615276 -117.541690 219 3513ft 150kts
10-Nov-17 21:48 47.584522 -117.578999 218 6073ft 166kts
10-Nov-17 21:49 47.552511 -117.617628 218 5950ft 204kts
10-Nov-17 21:50 47.556285 -117.671247 344 6002ft 213kts
10-Nov-17 21:51 47.593397 -117.662716 13 6002ft 212kts
10-Nov-17 21:52 47.654685 -117.640008 13 5993ft 212kts
10-Nov-17 21:53 47.687441 -117.596511 53 5998ft 213kts
10-Nov-17 21:54 47.720288 -117.528676 53 5996ft 212kts
10-Nov-17 21:55 47.748094 -117.471236 53 5952ft 202kts
10-Nov-17 21:56 47.784446 -117.396138 53 4971ft 189kts
10-Nov-17 21:57 47.802749 -117.341573 112 4988ft 188kts
10-Nov-17 21:58 47.748639 -117.341483 212 4364ft 184kts
10-Nov-17 21:59 47.719592 -117.382795 228 4140ft 173kts
10-Nov-17 22:00 47.689032 -117.431086 225 4017ft 160kts
10-Nov-17 22:01 47.658220 -117.477557 225 3119ft 131kts
10-Nov-17 22:02 47.636823 -117.509301 228 2518ft 133kts
10-Nov-17 22:03 47.611427 -117.546613 224 3733ft 153kts
10-Nov-17 22:04 47.578951 -117.598993 228 4162ft 183kts
10-Nov-17 22:05 47.537448 -117.637410 192 4191ft 186kts
10-Nov-17 22:06 47.488098 -117.652887 191 4177ft 188kts
10-Nov-17 22:07 47.482127 -117.702264 342 5058ft 192kts
10-Nov-17 22:08 47.532473 -117.723895 343 4981ft 188kts
10-Nov-17 22:09 47.583174 -117.744733 358 4985ft 189kts
10-Nov-17 22:10 47.618251 -117.691260 53 5002ft 190kts
10-Nov-17 22:11 47.648969 -117.627891 53 4992ft 189kts
10-Nov-17 22:12 47.679197 -117.565526 53 4994ft 189kts
10-Nov-17 22:13 47.707457 -117.507214 53 4997ft 189kts
10-Nov-17 22:14 47.737298 -117.445636 53 5000ft 189kts
10-Nov-17 22:15 47.763501 -117.379723 101 4550ft 188kts
10-Nov-17 22:16 47.723397 -117.378612 220 3978ft 164kts
10-Nov-17 22:17 47.693453 -117.424010 226 4033ft 150kts
10-Nov-17 22:18 47.666369 -117.465324 225 3344ft 135kts
10-Nov-17 22:19 47.639927 -117.505093 226 2645ft 135kts
10-Nov-17 22:20 47.620583 -117.534745 247 2363ft 30kts
10-Nov-17 22:21 47.620493 -117.538389 33 2365ft 8kts
10-Nov-17 22:22 47.622292 -117.537351 24 2363ft 8kts
10-Nov-17 22:23 47.623597 -117.535201 44 2360ft 8kts
10-Nov-17 22:24 47.625124 -117.534639 5 2359ft 0kts

Navigation Log

Ident Type
Flight plan parsing failed, navigation log unavailable